createdAt,value
2018-04-29T00:00:27.640Z,12.60
2018-04-29T00:03:03.083Z,12.60
2018-04-29T00:05:38.328Z,12.50
2018-04-29T00:08:13.766Z,12.40
2018-04-29T00:10:48.996Z,12.40
2018-04-29T00:13:24.261Z,12.30
2018-04-29T00:15:59.523Z,12.20
2018-04-29T00:18:34.633Z,12.20
2018-04-29T00:21:10.176Z,12.10
2018-04-29T00:23:45.256Z,12.20
2018-04-29T00:26:21.303Z,12.00
2018-04-29T00:28:56.493Z,12.00
2018-04-29T00:31:31.646Z,12.00
2018-04-29T00:34:08.673Z,12.00
2018-04-29T00:36:44.619Z,11.90
2018-04-29T00:39:19.716Z,11.90
2018-04-29T00:41:55.000Z,12.00
2018-04-29T00:44:30.281Z,12.00
2018-04-29T00:47:05.546Z,11.90
2018-04-29T00:49:40.823Z,11.90
2018-04-29T00:52:16.102Z,11.80
2018-04-29T00:54:52.244Z,11.70
2018-04-29T00:57:27.402Z,11.70
2018-04-29T01:00:02.674Z,11.70
2018-04-29T01:02:37.999Z,11.70
2018-04-29T01:05:13.353Z,11.60
2018-04-29T01:07:48.581Z,11.60
2018-04-29T01:10:24.025Z,11.60
2018-04-29T01:12:59.273Z,11.50
2018-04-29T01:15:35.242Z,11.40
2018-04-29T01:18:10.424Z,11.40
2018-04-29T01:20:45.512Z,11.40
2018-04-29T01:23:21.578Z,11.30
2018-04-29T01:25:57.528Z,11.30
2018-04-29T01:28:32.854Z,11.30
2018-04-29T01:31:08.149Z,11.20
2018-04-29T01:33:43.473Z,11.20
2018-04-29T01:36:18.780Z,11.20
2018-04-29T01:38:54.026Z,11.20
2018-04-29T01:41:29.309Z,11.20
2018-04-29T01:44:04.588Z,11.20
2018-04-29T01:46:39.979Z,11.20
2018-04-29T01:49:16.109Z,11.20
2018-04-29T01:51:51.441Z,11.20
2018-04-29T01:54:28.429Z,11.20
2018-04-29T01:57:03.507Z,11.20
2018-04-29T01:59:38.659Z,11.20
2018-04-29T02:02:13.982Z,11.20
2018-04-29T02:04:49.394Z,11.10
2018-04-29T02:07:24.617Z,11.10
2018-04-29T02:09:59.950Z,11.10
2018-04-29T02:12:35.088Z,11.00
2018-04-29T02:15:10.338Z,11.00
2018-04-29T02:17:45.679Z,11.00
2018-04-29T02:20:20.902Z,10.90
2018-04-29T02:22:56.991Z,10.90
2018-04-29T02:25:32.139Z,10.80
2018-04-29T02:28:07.348Z,10.80
2018-04-29T02:30:42.603Z,10.80
2018-04-29T02:33:17.779Z,10.70
2018-04-29T02:35:53.083Z,10.70
2018-04-29T02:38:29.075Z,10.60
2018-04-29T02:41:05.009Z,10.60
2018-04-29T02:43:40.963Z,10.60
2018-04-29T02:46:16.928Z,10.50
2018-04-29T02:48:52.131Z,10.50
2018-04-29T02:51:27.482Z,10.50
2018-04-29T02:54:03.454Z,10.30
2018-04-29T02:56:39.461Z,10.30
2018-04-29T02:59:14.629Z,10.20
2018-04-29T03:01:49.938Z,10.20
2018-04-29T03:04:27.092Z,10.20
2018-04-29T03:07:03.222Z,10.10
2018-04-29T03:09:38.947Z,10.00
2018-04-29T03:12:14.049Z,10.10
2018-04-29T03:14:49.164Z,10.10
2018-04-29T03:17:24.520Z,10.00
2018-04-29T03:19:59.924Z,10.00
2018-04-29T03:22:35.064Z,9.90
2018-04-29T03:25:10.346Z,9.90
2018-04-29T03:27:45.656Z,9.90
2018-04-29T03:30:21.087Z,9.90
2018-04-29T03:32:56.415Z,9.80
2018-04-29T03:35:31.547Z,9.80
2018-04-29T03:38:06.919Z,9.80
2018-04-29T03:40:42.032Z,9.70
2018-04-29T03:43:17.346Z,9.70
2018-04-29T03:45:52.532Z,9.70
2018-04-29T03:48:27.763Z,9.60
2018-04-29T03:51:03.818Z,9.60
2018-04-29T03:53:38.943Z,9.60
2018-04-29T03:56:14.199Z,9.60
2018-04-29T03:59:07.533Z,9.60
2018-04-29T04:02:00.711Z,9.50
2018-04-29T04:04:36.664Z,9.50
2018-04-29T04:07:11.998Z,9.50
2018-04-29T04:09:48.302Z,9.50
2018-04-29T04:12:23.719Z,9.50
2018-04-29T04:14:58.974Z,9.50
2018-04-29T04:17:34.171Z,9.40
2018-04-29T04:20:09.426Z,9.40
2018-04-29T04:22:44.766Z,9.40
2018-04-29T04:25:20.003Z,9.40
2018-04-29T04:27:55.353Z,9.40
2018-04-29T04:30:30.709Z,9.40
2018-04-29T04:33:06.007Z,9.40
2018-04-29T04:35:41.263Z,9.40
2018-04-29T04:38:16.516Z,9.40
2018-04-29T04:40:51.762Z,9.40
2018-04-29T04:43:27.822Z,9.40
2018-04-29T04:46:03.150Z,9.40
2018-04-29T04:48:38.428Z,9.40
2018-04-29T04:51:13.633Z,9.40
2018-04-29T04:53:48.864Z,9.50
2018-04-29T04:56:24.106Z,9.50
2018-04-29T04:58:59.380Z,9.60
2018-04-29T05:01:35.321Z,9.60
2018-04-29T05:04:11.290Z,9.70
2018-04-29T05:06:46.472Z,9.70
2018-04-29T05:09:21.760Z,9.80
2018-04-29T05:11:57.071Z,9.90
2018-04-29T05:14:32.222Z,10.00
2018-04-29T05:17:07.560Z,10.10
2018-04-29T05:19:42.808Z,10.10
2018-04-29T05:22:18.771Z,10.30
2018-04-29T05:24:54.169Z,10.20
2018-04-29T05:27:29.341Z,10.30
2018-04-29T05:30:05.255Z,10.50
2018-04-29T05:32:40.604Z,10.70
2018-04-29T05:35:15.931Z,11.10
2018-04-29T05:37:51.271Z,11.20
2018-04-29T05:40:27.217Z,11.40
2018-04-29T05:43:02.350Z,11.40
2018-04-29T05:45:37.862Z,11.70
2018-04-29T05:48:13.063Z,12.10
2018-04-29T05:50:48.351Z,12.60
2018-04-29T05:53:23.680Z,12.90
2018-04-29T05:55:59.646Z,13.10
2018-04-29T05:58:34.977Z,13.10
2018-04-29T06:01:10.333Z,13.20
2018-04-29T06:03:45.837Z,13.20
2018-04-29T06:06:21.195Z,13.30
2018-04-29T06:08:59.077Z,13.00
2018-04-29T06:11:36.197Z,13.00
2018-04-29T06:14:11.507Z,12.90
2018-04-29T06:16:47.674Z,12.90
2018-04-29T06:19:23.217Z,12.80
2018-04-29T06:21:59.136Z,12.60
2018-04-29T06:24:35.328Z,12.60
2018-04-29T06:27:10.616Z,12.20
2018-04-29T06:29:45.907Z,11.60
2018-04-29T06:32:22.049Z,11.30
2018-04-29T06:34:57.939Z,11.30
2018-04-29T06:50:27.618Z,10.60
2018-04-29T06:53:02.704Z,10.80
2018-04-29T06:55:38.559Z,11.10
2018-04-29T06:58:14.602Z,11.10
2018-04-29T07:00:50.664Z,11.10
2018-04-29T07:03:25.865Z,11.10
2018-04-29T07:06:01.031Z,11.40
2018-04-29T07:08:36.277Z,11.80
2018-04-29T07:11:11.580Z,12.60
2018-04-29T07:13:47.477Z,14.00
2018-04-29T07:16:22.923Z,13.90
2018-04-29T07:18:58.904Z,14.90
2018-04-29T07:21:34.128Z,14.80
2018-04-29T07:24:09.439Z,15.40
2018-04-29T07:26:44.738Z,16.00
2018-04-29T07:29:20.650Z,16.90
2018-04-29T07:31:56.683Z,17.00
2018-04-29T07:34:31.826Z,17.00
2018-04-29T07:37:07.824Z,16.80
2018-04-29T07:39:43.773Z,16.20
2018-04-29T07:42:19.728Z,15.70
2018-04-29T07:44:54.772Z,15.70
2018-04-29T07:47:30.123Z,15.40
2018-04-29T07:50:05.450Z,15.10
2018-04-29T07:52:41.643Z,14.70
2018-04-29T07:55:16.642Z,14.70
2018-04-29T07:57:51.870Z,14.70
2018-04-29T08:00:29.223Z,14.80
2018-04-29T08:03:05.229Z,14.60
2018-04-29T08:05:40.565Z,14.50
2018-04-29T08:08:15.933Z,14.50
2018-04-29T08:10:51.182Z,14.30
2018-04-29T08:13:26.693Z,14.20
2018-04-29T08:16:02.036Z,14.10
2018-04-29T08:18:37.289Z,14.00
2018-04-29T08:21:12.650Z,14.00
2018-04-29T08:23:48.120Z,13.80
2018-04-29T08:26:23.233Z,13.70
2018-04-29T08:28:58.355Z,13.90
2018-04-29T08:31:33.610Z,14.00
2018-04-29T08:34:08.828Z,14.00
2018-04-29T08:36:44.131Z,14.10
2018-04-29T08:39:20.124Z,14.20
2018-04-29T08:41:57.439Z,14.10
2018-04-29T08:44:33.866Z,14.20
2018-04-29T08:47:08.995Z,14.10
2018-04-29T08:49:44.367Z,14.20
2018-04-29T08:52:19.842Z,14.30
2018-04-29T08:54:55.019Z,14.50
2018-04-29T08:57:30.258Z,14.60
2018-04-29T09:00:05.601Z,14.60
2018-04-29T09:02:40.943Z,14.60
2018-04-29T09:05:16.969Z,14.90
2018-04-29T09:07:52.405Z,14.90
2018-04-29T09:10:27.684Z,14.80
2018-04-29T09:13:02.975Z,15.00
2018-04-29T09:15:38.786Z,15.20
2018-04-29T09:18:14.144Z,15.20
2018-04-29T09:20:55.607Z,15.20
2018-04-29T09:23:33.853Z,15.20
2018-04-29T09:26:09.939Z,15.50
2018-04-29T09:28:45.117Z,15.50
2018-04-29T09:31:20.441Z,15.70
2018-04-29T09:33:55.906Z,16.20
2018-04-29T09:36:31.883Z,16.20
2018-04-29T09:39:07.081Z,16.20
2018-04-29T09:41:42.124Z,16.30
2018-04-29T09:44:18.145Z,16.50
2018-04-29T09:46:53.530Z,16.50
2018-04-29T09:49:28.887Z,16.70
2018-04-29T09:52:04.074Z,16.50
2018-04-29T09:54:39.312Z,16.10
2018-04-29T09:57:14.582Z,15.70
2018-04-29T09:59:49.932Z,15.70
2018-04-29T10:02:25.092Z,15.60
2018-04-29T10:05:00.226Z,15.60
2018-04-29T10:07:35.560Z,15.70
2018-04-29T10:10:10.963Z,15.70
2018-04-29T10:12:46.866Z,16.30
2018-04-29T10:15:22.060Z,16.30
2018-04-29T10:17:57.488Z,16.90
2018-04-29T10:20:32.692Z,17.50
2018-04-29T10:23:08.643Z,18.90
2018-04-29T10:25:44.645Z,19.40
2018-04-29T10:28:20.656Z,19.40
2018-04-29T10:30:56.344Z,19.90
2018-04-29T10:33:32.004Z,20.10
2018-04-29T10:36:08.075Z,20.50
2018-04-29T10:38:43.347Z,20.60
2018-04-29T10:41:18.664Z,20.80
2018-04-29T10:43:53.912Z,21.30
2018-04-29T10:46:29.136Z,21.30
2018-04-29T10:49:04.460Z,21.60
2018-04-29T10:51:39.607Z,21.90
2018-04-29T10:54:15.580Z,22.00
2018-04-29T10:56:50.877Z,21.90
2018-04-29T10:59:25.986Z,21.80
2018-04-29T11:02:01.089Z,21.50
2018-04-29T11:04:36.463Z,21.50
2018-04-29T11:07:12.519Z,21.90
2018-04-29T11:09:47.648Z,21.90
2018-04-29T11:12:22.775Z,21.60
2018-04-29T11:14:58.935Z,21.70
2018-04-29T11:17:34.288Z,21.70
2018-04-29T11:20:09.557Z,21.60
2018-04-29T11:22:44.904Z,21.70
2018-04-29T11:25:20.223Z,22.00
2018-04-29T11:27:55.586Z,22.30
2018-04-29T11:30:31.544Z,22.60
2018-04-29T11:33:06.650Z,22.60
2018-04-29T11:35:42.019Z,22.60
2018-04-29T11:38:17.435Z,22.80
2018-04-29T11:40:52.562Z,23.00
2018-04-29T11:43:27.823Z,22.70
2018-04-29T11:46:03.801Z,22.40
2018-04-29T11:48:39.809Z,22.30
2018-04-29T11:51:16.628Z,22.70
2018-04-29T11:53:51.954Z,22.70
2018-04-29T11:56:27.187Z,23.00
2018-04-29T11:59:02.492Z,23.10
2018-04-29T12:01:37.804Z,23.30
2018-04-29T12:04:12.931Z,23.50
2018-04-29T12:06:48.253Z,23.40
2018-04-29T12:09:23.687Z,23.40
2018-04-29T12:11:58.876Z,23.40
2018-04-29T12:14:34.163Z,23.80
2018-04-29T12:17:09.504Z,23.60
2018-04-29T12:19:44.887Z,23.60
2018-04-29T12:22:20.093Z,23.40
2018-04-29T12:24:55.207Z,23.50
2018-04-29T12:27:31.253Z,23.60
2018-04-29T12:30:07.352Z,23.80
2018-04-29T12:32:42.575Z,23.80
2018-04-29T12:35:17.945Z,23.90
2018-04-29T12:37:53.091Z,24.20
2018-04-29T12:40:28.385Z,24.20
2018-04-29T12:43:03.753Z,24.10
2018-04-29T12:45:39.104Z,24.20
2018-04-29T12:48:14.395Z,24.10
2018-04-29T12:50:49.779Z,24.30
2018-04-29T12:53:25.113Z,24.30
2018-04-29T12:56:00.996Z,24.30
2018-04-29T12:58:36.163Z,24.30
2018-04-29T13:01:11.431Z,24.30
2018-04-29T13:03:46.762Z,24.20
2018-04-29T13:06:23.016Z,24.20
2018-04-29T13:08:58.193Z,24.30
2018-04-29T13:11:36.030Z,24.50
2018-04-29T13:14:11.225Z,24.40
2018-04-29T13:16:46.511Z,24.60
2018-04-29T13:19:21.756Z,24.70
2018-04-29T13:21:56.903Z,24.80
2018-04-29T13:24:32.174Z,24.80
2018-04-29T13:27:08.273Z,25.00
2018-04-29T13:29:43.488Z,24.90
2018-04-29T13:32:19.456Z,25.10
2018-04-29T13:34:55.418Z,24.90
2018-04-29T13:37:30.540Z,24.90
2018-04-29T13:40:05.773Z,24.90
2018-04-29T13:42:41.146Z,24.80
2018-04-29T13:45:16.519Z,24.80
2018-04-29T13:47:52.456Z,24.70
2018-04-29T13:50:27.643Z,24.60
2018-04-29T13:53:03.157Z,24.70
2018-04-29T13:55:38.389Z,24.60
2018-04-29T14:00:55.829Z,24.50
2018-04-29T14:03:31.004Z,24.50
2018-04-29T14:06:06.270Z,24.50
2018-04-29T14:08:41.376Z,24.50
2018-04-29T14:11:16.646Z,24.50
2018-04-29T14:13:51.958Z,24.60
2018-04-29T14:16:27.255Z,24.60
2018-04-29T14:19:03.284Z,24.80
2018-04-29T14:21:39.317Z,24.80
2018-04-29T14:24:14.373Z,24.80
2018-04-29T14:26:51.036Z,25.10
2018-04-29T14:29:26.286Z,25.00
2018-04-29T14:32:01.466Z,25.00
2018-04-29T14:34:36.726Z,25.20
2018-04-29T14:37:12.021Z,25.10
2018-04-29T14:39:47.343Z,25.00
2018-04-29T14:42:22.736Z,25.00
2018-04-29T14:44:58.010Z,24.90
2018-04-29T14:47:33.215Z,24.80
2018-04-29T14:50:08.587Z,24.70
2018-04-29T14:52:44.003Z,24.70
2018-04-29T14:55:19.184Z,24.60
2018-04-29T14:57:54.306Z,24.50
2018-04-29T15:00:29.561Z,24.50
2018-04-29T15:03:05.439Z,24.50
2018-04-29T15:05:40.543Z,24.40
2018-04-29T15:25:41.636Z,24.10
2018-04-29T15:28:16.878Z,24.30
2018-04-29T15:30:52.229Z,24.50
2018-04-29T15:33:27.661Z,24.50
2018-04-29T15:36:02.900Z,24.60
2018-04-29T15:38:38.339Z,24.50
2018-04-29T15:41:14.109Z,24.50
2018-04-29T15:43:49.439Z,24.60
2018-04-29T15:46:25.470Z,24.60
2018-04-29T15:49:00.522Z,24.60
2018-04-29T15:51:35.750Z,24.50
2018-04-29T16:07:02.510Z,24.50
2018-04-29T16:09:38.492Z,24.30
2018-04-29T16:12:13.784Z,24.40
2018-04-29T16:14:49.674Z,24.40
2018-04-29T16:17:24.818Z,24.40
2018-04-29T16:20:00.264Z,24.40
2018-04-29T16:22:36.261Z,24.20
2018-04-29T16:25:11.543Z,24.20
2018-04-29T16:27:46.903Z,24.20
2018-04-29T16:30:22.037Z,24.20
2018-04-29T16:32:58.104Z,24.10
2018-04-29T16:35:34.059Z,24.10
2018-04-29T16:38:09.368Z,24.10
2018-04-29T16:40:45.321Z,24.00
2018-04-29T16:43:20.532Z,24.10
2018-04-29T16:45:55.680Z,24.00
2018-04-29T16:48:31.666Z,23.90
2018-04-29T16:51:07.638Z,23.80
2018-04-29T16:53:42.983Z,23.70
2018-04-29T16:56:18.183Z,23.70
2018-04-29T16:58:54.052Z,23.60
2018-04-29T17:01:30.009Z,23.60
2018-04-29T17:04:05.875Z,23.50
2018-04-29T17:06:41.918Z,23.50
2018-04-29T17:09:17.263Z,23.50
2018-04-29T17:11:52.607Z,23.50
2018-04-29T17:14:27.871Z,23.50
2018-04-29T17:17:03.210Z,23.40
2018-04-29T17:19:38.263Z,23.40
2018-04-29T17:22:14.302Z,23.30
2018-04-29T17:24:49.402Z,23.30
2018-04-29T17:27:25.219Z,23.30
2018-04-29T17:30:00.501Z,23.20
2018-04-29T17:32:35.733Z,23.30
2018-04-29T17:35:11.105Z,23.30
2018-04-29T17:37:47.059Z,23.20
2018-04-29T17:40:22.197Z,23.30
2018-04-29T17:42:57.401Z,23.30
2018-04-29T17:45:32.705Z,23.30
2018-04-29T17:48:08.639Z,23.20
2018-04-29T17:50:44.551Z,23.10
2018-04-29T17:53:20.482Z,23.00
2018-04-29T17:55:57.318Z,23.00
2018-04-29T17:58:32.562Z,22.90
2018-04-29T18:01:07.882Z,22.90
2018-04-29T18:03:43.240Z,22.80
2018-04-29T18:06:18.443Z,22.70
2018-04-29T18:08:53.585Z,22.60
2018-04-29T18:11:28.869Z,22.50
2018-04-29T18:14:04.083Z,22.30
2018-04-29T18:16:39.974Z,22.10
2018-04-29T18:19:15.996Z,22.00
2018-04-29T18:21:53.007Z,21.90
2018-04-29T18:24:28.344Z,21.80
2018-04-29T18:27:03.464Z,21.80
2018-04-29T18:29:38.799Z,21.60
2018-04-29T18:32:14.042Z,21.50
2018-04-29T18:34:49.153Z,21.40
2018-04-29T18:37:24.885Z,21.40
2018-04-29T18:40:00.080Z,21.20
2018-04-29T18:42:37.816Z,21.00
2018-04-29T18:45:13.219Z,21.00
2018-04-29T18:47:49.068Z,20.90
2018-04-29T18:50:25.122Z,20.90
2018-04-29T18:53:00.347Z,20.90
2018-04-29T18:55:35.633Z,20.90
2018-04-29T18:58:10.801Z,20.80
2018-04-29T19:00:46.104Z,20.70
2018-04-29T19:03:22.110Z,20.50
2018-04-29T19:05:59.980Z,20.50
2018-04-29T19:08:36.023Z,20.50
2018-04-29T19:11:12.010Z,20.40
2018-04-29T19:13:47.166Z,20.40
2018-04-29T19:16:22.382Z,20.40
2018-04-29T19:18:58.387Z,20.30
2018-04-29T19:21:34.732Z,20.20
2018-04-29T19:24:10.041Z,20.20
2018-04-29T19:26:45.153Z,20.20
2018-04-29T19:29:20.466Z,20.10
2018-04-29T19:31:56.056Z,20.00
2018-04-29T19:34:31.313Z,20.00
2018-04-29T19:37:06.576Z,19.90
2018-04-29T19:39:41.842Z,19.90
2018-04-29T19:42:17.705Z,19.80
2018-04-29T19:44:53.854Z,19.70
2018-04-29T19:47:29.184Z,19.70
2018-04-29T19:50:04.527Z,19.70
2018-04-29T19:52:40.457Z,19.70
2018-04-29T19:55:15.728Z,19.60
2018-04-29T19:57:52.156Z,19.70
2018-04-29T20:00:29.444Z,19.70
2018-04-29T20:03:04.663Z,19.70
2018-04-29T20:05:39.777Z,19.70
2018-04-29T20:08:16.858Z,19.70
2018-04-29T20:10:52.207Z,19.70
2018-04-29T20:13:27.512Z,19.60
2018-04-29T20:16:02.792Z,19.50
2018-04-29T20:18:38.066Z,19.50
2018-04-29T20:21:13.270Z,19.40
2018-04-29T20:23:48.665Z,19.40
2018-04-29T20:26:23.923Z,19.30
2018-04-29T20:28:59.266Z,19.30
2018-04-29T20:31:34.500Z,19.20
2018-04-29T20:34:09.751Z,19.20
2018-04-29T20:36:45.918Z,19.00
2018-04-29T20:39:21.224Z,19.00
2018-04-29T20:41:57.254Z,18.90
2018-04-29T20:44:32.409Z,18.90
2018-04-29T20:47:07.675Z,18.80
2018-04-29T20:49:42.745Z,18.80
2018-04-29T20:52:18.001Z,18.80
2018-04-29T20:54:53.327Z,18.70
2018-04-29T20:57:29.297Z,18.60
2018-04-29T21:00:04.436Z,18.60
2018-04-29T21:02:39.593Z,18.60
2018-04-29T21:05:15.669Z,18.50
2018-04-29T21:07:50.887Z,18.50
2018-04-29T21:10:26.793Z,18.50
2018-04-29T21:13:05.023Z,18.40
2018-04-29T21:15:40.379Z,18.40
2018-04-29T21:18:15.596Z,18.40
2018-04-29T21:20:50.808Z,18.30
2018-04-29T21:23:26.085Z,18.30
2018-04-29T21:26:01.499Z,18.30
2018-04-29T21:28:37.516Z,18.30
2018-04-29T21:31:12.848Z,18.20
2018-04-29T21:33:48.988Z,18.20
2018-04-29T21:36:25.055Z,18.10
2018-04-29T21:39:00.379Z,18.10
2018-04-29T21:41:35.630Z,18.10
2018-04-29T21:44:10.834Z,18.00
2018-04-29T21:46:46.094Z,18.00
2018-04-29T21:49:21.431Z,18.00
2018-04-29T21:51:56.557Z,17.90
2018-04-29T21:54:31.751Z,17.90
2018-04-29T21:57:07.744Z,17.80
2018-04-29T21:59:43.117Z,17.80
2018-04-29T22:02:18.439Z,17.80
2018-04-29T22:04:53.630Z,17.80
2018-04-29T22:07:29.017Z,17.80
2018-04-29T22:10:04.360Z,17.80
2018-04-29T22:12:39.601Z,17.80
2018-04-29T22:15:15.168Z,17.80
2018-04-29T22:17:50.516Z,17.90
2018-04-29T22:20:25.857Z,17.90
2018-04-29T22:23:01.260Z,17.90
2018-04-29T22:25:36.399Z,17.90
2018-04-29T22:28:12.065Z,17.90
2018-04-29T22:30:48.098Z,18.00
2018-04-29T22:33:23.468Z,17.90
2018-04-29T22:35:58.741Z,18.00
2018-04-29T22:38:34.960Z,18.00
2018-04-29T22:41:10.079Z,18.00
2018-04-29T22:43:45.532Z,18.00
2018-04-29T22:46:21.592Z,17.90
2018-04-29T22:48:57.017Z,17.90
2018-04-29T22:51:32.267Z,17.80
2018-04-29T22:54:07.522Z,17.80
2018-04-29T22:56:42.851Z,17.80
2018-04-29T22:59:18.167Z,17.70
2018-04-29T23:01:53.438Z,17.60
2018-04-29T23:04:28.914Z,17.60
2018-04-29T23:07:04.218Z,17.50
2018-04-29T23:09:39.604Z,17.50
2018-04-29T23:12:14.726Z,17.50
2018-04-29T23:14:50.116Z,17.50
2018-04-29T23:17:26.098Z,17.60
2018-04-29T23:20:01.442Z,17.60
2018-04-29T23:22:36.698Z,17.60
2018-04-29T23:25:12.035Z,17.60
2018-04-29T23:27:47.414Z,17.50
2018-04-29T23:30:23.464Z,17.90
2018-04-29T23:32:58.699Z,17.90
2018-04-29T23:35:34.959Z,17.90
2018-04-29T23:38:10.250Z,17.80
2018-04-29T23:40:45.541Z,17.80
2018-04-29T23:43:20.929Z,17.70
2018-04-29T23:45:57.009Z,17.70
2018-04-29T23:48:35.208Z,17.70
2018-04-29T23:51:10.412Z,17.60
2018-04-29T23:53:45.715Z,17.70
2018-04-29T23:56:20.792Z,17.60
2018-04-29T23:58:56.457Z,17.60
